sensor_id;sensor_type;location;lat;lon;timestamp;pressure;altitude;pressure_sealevel;temperature;humidity
19457;BME280;9867;48.094;11.478;2022-11-20T00:01:04;94613.38;;;5.33;100.00
19457;BME280;9867;48.094;11.478;2022-11-20T00:03:33;94622.31;;;5.29;100.00
19457;BME280;9867;48.094;11.478;2022-11-20T00:06:02;94622.13;;;5.30;100.00
19457;BME280;9867;48.094;11.478;2022-11-20T00:08:31;94622.41;;;5.35;100.00
19457;BME280;9867;48.094;11.478;2022-11-20T00:11:02;94623.88;;;5.30;100.00
19457;BME280;9867;48.094;11.478;2022-11-20T00:13:31;94622.50;;;5.27;100.00
19457;BME280;9867;48.094;11.478;2022-11-20T00:16:00;94622.75;;;5.32;100.00
19457;BME280;9867;48.094;11.478;2022-11-20T00:18:28;94623.44;;;5.26;100.00
19457;BME280;9867;48.094;11.478;2022-11-20T00:21:02;94630.13;;;5.27;100.00
19457;BME280;9867;48.094;11.478;2022-11-20T00:23:30;94621.53;;;5.43;100.00
19457;BME280;9867;48.094;11.478;2022-11-20T00:26:01;94619.69;;;5.37;100.00
19457;BME280;9867;48.094;11.478;2022-11-20T00:28:29;94628.94;;;5.59;100.00
19457;BME280;9867;48.094;11.478;2022-11-20T00:31:01;94622.38;;;5.65;100.00
19457;BME280;9867;48.094;11.478;2022-11-20T00:33:30;94626.69;;;6.22;100.00
19457;BME280;9867;48.094;11.478;2022-11-20T00:36:03;94625.28;;;5.98;100.00
19457;BME280;9867;48.094;11.478;2022-11-20T00:38:31;94628.97;;;5.95;100.00
19457;BME280;9867;48.094;11.478;2022-11-20T00:41:00;94626.16;;;6.05;100.00
19457;BME280;9867;48.094;11.478;2022-11-20T00:43:28;94634.94;;;5.88;100.00
19457;BME280;9867;48.094;11.478;2022-11-20T00:45:57;94624.25;;;5.92;100.00
19457;BME280;9867;48.094;11.478;2022-11-20T00:48:25;94636.22;;;6.13;100.00
19457;BME280;9867;48.094;11.478;2022-11-20T00:50:54;94648.50;;;5.59;100.00
19457;BME280;9867;48.094;11.478;2022-11-20T00:53:24;94640.03;;;5.88;100.00
19457;BME280;9867;48.094;11.478;2022-11-20T00:55:55;94649.59;;;6.22;100.00
19457;BME280;9867;48.094;11.478;2022-11-20T00:58:25;94654.53;;;5.72;100.00
19457;BME280;9867;48.094;11.478;2022-11-20T01:01:00;94654.09;;;5.69;100.00
19457;BME280;9867;48.094;11.478;2022-11-20T01:03:31;94649.75;;;5.63;100.00
19457;BME280;9867;48.094;11.478;2022-11-20T01:06:00;94656.84;;;5.53;100.00
19457;BME280;9867;48.094;11.478;2022-11-20T01:08:34;94652.81;;;5.43;100.00
19457;BME280;9867;48.094;11.478;2022-11-20T01:11:05;94658.34;;;5.62;100.00
19457;BME280;9867;48.094;11.478;2022-11-20T01:13:34;94660.28;;;5.60;100.00
19457;BME280;9867;48.094;11.478;2022-11-20T01:16:07;94651.94;;;5.51;100.00
19457;BME280;9867;48.094;11.478;2022-11-20T01:18:36;94650.94;;;5.81;100.00
19457;BME280;9867;48.094;11.478;2022-11-20T01:21:06;94648.31;;;5.75;100.00
19457;BME280;9867;48.094;11.478;2022-11-20T01:23:38;94658.28;;;5.91;100.00
19457;BME280;9867;48.094;11.478;2022-11-20T01:26:08;94654.34;;;6.25;100.00
19457;BME280;9867;48.094;11.478;2022-11-20T01:28:37;94656.75;;;5.90;100.00
19457;BME280;9867;48.094;11.478;2022-11-20T01:31:11;94656.03;;;6.39;100.00
19457;BME280;9867;48.094;11.478;2022-11-20T01:33:40;94656.53;;;6.28;100.00
19457;BME280;9867;48.094;11.478;2022-11-20T01:36:09;94656.63;;;6.20;100.00
19457;BME280;9867;48.094;11.478;2022-11-20T01:38:40;94662.94;;;6.02;100.00
19457;BME280;9867;48.094;11.478;2022-11-20T01:41:09;94671.75;;;6.42;100.00
19457;BME280;9867;48.094;11.478;2022-11-20T01:43:37;94671.56;;;5.87;100.00
19457;BME280;9867;48.094;11.478;2022-11-20T01:46:16;94668.06;;;5.73;100.00
19457;BME280;9867;48.094;11.478;2022-11-20T01:48:49;94666.19;;;5.96;100.00
19457;BME280;9867;48.094;11.478;2022-11-20T01:51:25;94672.41;;;5.94;100.00
19457;BME280;9867;48.094;11.478;2022-11-20T01:53:58;94673.03;;;5.81;100.00
19457;BME280;9867;48.094;11.478;2022-11-20T01:56:31;94669.63;;;6.46;100.00
19457;BME280;9867;48.094;11.478;2022-11-20T01:59:02;94670.06;;;6.28;100.00
19457;BME280;9867;48.094;11.478;2022-11-20T02:01:31;94660.47;;;5.94;100.00
19457;BME280;9867;48.094;11.478;2022-11-20T02:04:00;94659.50;;;6.53;100.00
19457;BME280;9867;48.094;11.478;2022-11-20T02:06:31;94669.75;;;6.59;100.00
19457;BME280;9867;48.094;11.478;2022-11-20T02:09:04;94660.94;;;6.40;100.00
19457;BME280;9867;48.094;11.478;2022-11-20T02:11:31;94669.56;;;6.61;100.00
19457;BME280;9867;48.094;11.478;2022-11-20T02:14:00;94667.59;;;5.84;100.00
19457;BME280;9867;48.094;11.478;2022-11-20T02:16:29;94667.16;;;5.95;100.00
19457;BME280;9867;48.094;11.478;2022-11-20T02:19:01;94672.53;;;5.86;100.00
19457;BME280;9867;48.094;11.478;2022-11-20T02:21:35;94672.69;;;5.99;100.00
19457;BME280;9867;48.094;11.478;2022-11-20T02:24:08;94668.06;;;5.58;100.00
19457;BME280;9867;48.094;11.478;2022-11-20T02:26:42;94672.63;;;5.48;100.00
19457;BME280;9867;48.094;11.478;2022-11-20T02:29:11;94682.81;;;5.48;100.00
19457;BME280;9867;48.094;11.478;2022-11-20T02:31:41;94666.53;;;5.42;100.00
19457;BME280;9867;48.094;11.478;2022-11-20T02:34:10;94665.94;;;5.91;100.00
19457;BME280;9867;48.094;11.478;2022-11-20T02:36:39;94678.88;;;5.60;100.00
19457;BME280;9867;48.094;11.478;2022-11-20T02:39:13;94676.16;;;5.62;100.00
19457;BME280;9867;48.094;11.478;2022-11-20T02:41:43;94670.63;;;5.58;100.00
19457;BME280;9867;48.094;11.478;2022-11-20T02:44:11;94668.88;;;6.09;100.00
19457;BME280;9867;48.094;11.478;2022-11-20T02:46:39;94683.06;;;5.82;100.00
19457;BME280;9867;48.094;11.478;2022-11-20T02:49:07;94674.38;;;5.77;100.00
19457;BME280;9867;48.094;11.478;2022-11-20T02:51:36;94652.81;;;5.43;100.00
19457;BME280;9867;48.094;11.478;2022-11-20T02:54:04;94676.31;;;5.45;100.00
19457;BME280;9867;48.094;11.478;2022-11-20T02:56:33;94664.84;;;5.35;100.00
19457;BME280;9867;48.094;11.478;2022-11-20T02:59:01;94657.91;;;5.43;100.00
19457;BME280;9867;48.094;11.478;2022-11-20T03:01:29;94677.75;;;5.33;100.00
19457;BME280;9867;48.094;11.478;2022-11-20T03:03:57;94664.69;;;5.36;100.00
19457;BME280;9867;48.094;11.478;2022-11-20T03:06:25;94671.06;;;5.47;100.00
19457;BME280;9867;48.094;11.478;2022-11-20T03:08:53;94650.25;;;5.43;100.00
19457;BME280;9867;48.094;11.478;2022-11-20T03:11:21;94666.69;;;5.56;100.00
19457;BME280;9867;48.094;11.478;2022-11-20T03:13:51;94676.91;;;5.77;100.00
19457;BME280;9867;48.094;11.478;2022-11-20T03:16:21;94674.72;;;5.74;100.00
19457;BME280;9867;48.094;11.478;2022-11-20T03:18:51;94663.16;;;5.57;100.00
19457;BME280;9867;48.094;11.478;2022-11-20T03:21:20;94669.63;;;5.74;100.00
19457;BME280;9867;48.094;11.478;2022-11-20T03:23:50;94662.91;;;5.52;100.00
19457;BME280;9867;48.094;11.478;2022-11-20T03:26:20;94670.28;;;5.32;100.00
19457;BME280;9867;48.094;11.478;2022-11-20T03:28:51;94663.44;;;5.32;100.00
19457;BME280;9867;48.094;11.478;2022-11-20T03:31:22;94660.41;;;5.73;100.00
19457;BME280;9867;48.094;11.478;2022-11-20T03:33:50;94662.50;;;5.84;100.00
19457;BME280;9867;48.094;11.478;2022-11-20T03:36:19;94662.09;;;5.51;100.00
19457;BME280;9867;48.094;11.478;2022-11-20T03:38:48;94663.22;;;5.78;100.00
19457;BME280;9867;48.094;11.478;2022-11-20T03:41:17;94665.97;;;5.47;100.00
19457;BME280;9867;48.094;11.478;2022-11-20T03:43:48;94670.81;;;5.42;100.00
19457;BME280;9867;48.094;11.478;2022-11-20T03:46:18;94668.88;;;5.59;100.00
19457;BME280;9867;48.094;11.478;2022-11-20T03:48:46;94667.72;;;5.46;100.00
19457;BME280;9867;48.094;11.478;2022-11-20T03:51:19;94667.19;;;5.51;100.00
19457;BME280;9867;48.094;11.478;2022-11-20T03:53:48;94668.59;;;5.54;100.00
19457;BME280;9867;48.094;11.478;2022-11-20T03:56:18;94668.59;;;5.24;100.00
19457;BME280;9867;48.094;11.478;2022-11-20T03:58:46;94668.16;;;5.65;100.00
19457;BME280;9867;48.094;11.478;2022-11-20T04:01:16;94675.91;;;5.42;100.00
19457;BME280;9867;48.094;11.478;2022-11-20T04:03:46;94673.97;;;5.29;100.00
19457;BME280;9867;48.094;11.478;2022-11-20T04:06:18;94681.66;;;5.51;100.00
19457;BME280;9867;48.094;11.478;2022-11-20T04:08:46;94677.47;;;5.43;100.00
19457;BME280;9867;48.094;11.478;2022-11-20T04:11:23;94678.00;;;5.53;100.00
19457;BME280;9867;48.094;11.478;2022-11-20T04:13:53;94670.78;;;5.57;100.00
19457;BME280;9867;48.094;11.478;2022-11-20T04:16:22;94673.09;;;5.37;100.00
19457;BME280;9867;48.094;11.478;2022-11-20T04:18:53;94665.69;;;5.71;100.00
19457;BME280;9867;48.094;11.478;2022-11-20T04:21:21;94670.25;;;5.46;100.00
19457;BME280;9867;48.094;11.478;2022-11-20T04:23:50;94669.00;;;5.72;100.00
19457;BME280;9867;48.094;11.478;2022-11-20T04:26:20;94664.31;;;5.54;100.00
19457;BME280;9867;48.094;11.478;2022-11-20T04:28:48;94670.66;;;6.09;100.00
19457;BME280;9867;48.094;11.478;2022-11-20T04:31:18;94666.34;;;6.09;100.00
19457;BME280;9867;48.094;11.478;2022-11-20T04:33:46;94667.22;;;6.59;100.00
19457;BME280;9867;48.094;11.478;2022-11-20T04:36:17;94664.00;;;6.29;100.00
19457;BME280;9867;48.094;11.478;2022-11-20T04:38:45;94667.31;;;6.30;100.00
19457;BME280;9867;48.094;11.478;2022-11-20T04:41:23;94667.25;;;6.66;100.00
19457;BME280;9867;48.094;11.478;2022-11-20T04:43:52;94674.72;;;7.23;100.00
19457;BME280;9867;48.094;11.478;2022-11-20T04:46:26;94673.53;;;6.91;100.00
19457;BME280;9867;48.094;11.478;2022-11-20T04:48:54;94681.00;;;6.07;100.00
19457;BME280;9867;48.094;11.478;2022-11-20T04:51:24;94689.53;;;5.85;100.00
19457;BME280;9867;48.094;11.478;2022-11-20T04:53:52;94668.84;;;5.73;100.00
19457;BME280;9867;48.094;11.478;2022-11-20T04:56:20;94677.16;;;5.67;100.00
19457;BME280;9867;48.094;11.478;2022-11-20T04:58:47;94670.72;;;5.65;100.00
19457;BME280;9867;48.094;11.478;2022-11-20T05:01:17;94675.69;;;5.88;100.00
19457;BME280;9867;48.094;11.478;2022-11-20T05:03:46;94678.84;;;5.75;100.00
19457;BME280;9867;48.094;11.478;2022-11-20T05:06:17;94670.94;;;5.99;100.00
19457;BME280;9867;48.094;11.478;2022-11-20T05:08:46;94661.19;;;6.24;100.00
19457;BME280;9867;48.094;11.478;2022-11-20T05:11:16;94675.75;;;6.30;100.00
19457;BME280;9867;48.094;11.478;2022-11-20T05:13:44;94672.31;;;6.59;100.00
19457;BME280;9867;48.094;11.478;2022-11-20T05:16:14;94665.19;;;6.76;100.00
19457;BME280;9867;48.094;11.478;2022-11-20T05:18:43;94670.75;;;6.65;100.00
19457;BME280;9867;48.094;11.478;2022-11-20T05:21:11;94676.78;;;6.57;100.00
19457;BME280;9867;48.094;11.478;2022-11-20T05:23:40;94678.19;;;6.88;100.00
19457;BME280;9867;48.094;11.478;2022-11-20T05:26:13;94679.63;;;6.47;100.00
19457;BME280;9867;48.094;11.478;2022-11-20T05:28:41;94678.94;;;6.18;100.00
19457;BME280;9867;48.094;11.478;2022-11-20T05:31:12;94676.16;;;6.12;100.00
19457;BME280;9867;48.094;11.478;2022-11-20T05:33:41;94668.06;;;6.94;100.00
19457;BME280;9867;48.094;11.478;2022-11-20T05:36:10;94676.84;;;6.21;100.00
19457;BME280;9867;48.094;11.478;2022-11-20T05:38:39;94683.69;;;6.21;100.00
19457;BME280;9867;48.094;11.478;2022-11-20T05:41:10;94681.94;;;6.21;100.00
19457;BME280;9867;48.094;11.478;2022-11-20T05:43:39;94688.84;;;5.91;100.00
19457;BME280;9867;48.094;11.478;2022-11-20T05:46:10;94680.09;;;6.15;100.00
19457;BME280;9867;48.094;11.478;2022-11-20T05:48:39;94676.91;;;6.28;100.00
19457;BME280;9867;48.094;11.478;2022-11-20T05:51:10;94687.50;;;6.10;100.00
19457;BME280;9867;48.094;11.478;2022-11-20T05:53:38;94679.19;;;6.23;100.00
19457;BME280;9867;48.094;11.478;2022-11-20T05:56:16;94689.34;;;6.59;100.00
19457;BME280;9867;48.094;11.478;2022-11-20T05:58:45;94689.41;;;6.65;100.00
19457;BME280;9867;48.094;11.478;2022-11-20T06:01:15;94687.97;;;6.35;100.00
19457;BME280;9867;48.094;11.478;2022-11-20T06:03:44;94684.13;;;6.45;100.00
19457;BME280;9867;48.094;11.478;2022-11-20T06:06:16;94685.84;;;6.60;100.00
19457;BME280;9867;48.094;11.478;2022-11-20T06:08:44;94685.94;;;6.30;100.00
19457;BME280;9867;48.094;11.478;2022-11-20T06:11:15;94683.50;;;6.22;100.00
19457;BME280;9867;48.094;11.478;2022-11-20T06:13:43;94677.25;;;6.25;100.00
19457;BME280;9867;48.094;11.478;2022-11-20T06:16:13;94695.78;;;5.97;100.00
19457;BME280;9867;48.094;11.478;2022-11-20T06:18:42;94685.97;;;6.15;100.00
19457;BME280;9867;48.094;11.478;2022-11-20T06:21:14;94689.03;;;5.45;100.00
19457;BME280;9867;48.094;11.478;2022-11-20T06:23:43;94689.97;;;5.74;100.00
19457;BME280;9867;48.094;11.478;2022-11-20T06:26:13;94687.28;;;5.61;100.00
19457;BME280;9867;48.094;11.478;2022-11-20T06:28:43;94682.66;;;5.64;100.00
19457;BME280;9867;48.094;11.478;2022-11-20T06:31:13;94693.50;;;5.43;100.00
19457;BME280;9867;48.094;11.478;2022-11-20T06:33:43;94711.22;;;5.52;100.00
19457;BME280;9867;48.094;11.478;2022-11-20T06:36:12;94699.31;;;5.37;100.00
19457;BME280;9867;48.094;11.478;2022-11-20T06:38:40;94693.97;;;5.32;100.00
19457;BME280;9867;48.094;11.478;2022-11-20T06:41:12;94706.66;;;5.76;100.00
19457;BME280;9867;48.094;11.478;2022-11-20T06:43:40;94705.78;;;5.55;100.00
19457;BME280;9867;48.094;11.478;2022-11-20T06:46:10;94713.06;;;5.72;100.00
19457;BME280;9867;48.094;11.478;2022-11-20T06:48:39;94703.94;;;5.93;100.00
19457;BME280;9867;48.094;11.478;2022-11-20T06:51:07;94715.34;;;5.82;100.00
19457;BME280;9867;48.094;11.478;2022-11-20T06:53:36;94710.41;;;6.10;100.00
19457;BME280;9867;48.094;11.478;2022-11-20T06:56:05;94718.50;;;6.13;100.00
19457;BME280;9867;48.094;11.478;2022-11-20T06:58:34;94720.78;;;6.08;100.00
19457;BME280;9867;48.094;11.478;2022-11-20T07:01:04;94729.50;;;6.35;100.00
19457;BME280;9867;48.094;11.478;2022-11-20T07:03:34;94728.28;;;6.31;100.00
19457;BME280;9867;48.094;11.478;2022-11-20T07:06:02;94723.78;;;5.97;100.00
19457;BME280;9867;48.094;11.478;2022-11-20T07:08:31;94730.63;;;5.82;100.00
19457;BME280;9867;48.094;11.478;2022-11-20T07:11:00;94731.41;;;5.97;100.00
19457;BME280;9867;48.094;11.478;2022-11-20T07:13:29;94727.66;;;6.29;100.00
19457;BME280;9867;48.094;11.478;2022-11-20T07:16:00;94735.31;;;6.29;100.00
19457;BME280;9867;48.094;11.478;2022-11-20T07:18:28;94733.50;;;6.08;100.00
19457;BME280;9867;48.094;11.478;2022-11-20T07:21:00;94731.41;;;5.97;100.00
19457;BME280;9867;48.094;11.478;2022-11-20T07:23:28;94735.34;;;5.85;100.00
19457;BME280;9867;48.094;11.478;2022-11-20T07:25:56;94738.53;;;5.87;100.00
19457;BME280;9867;48.094;11.478;2022-11-20T07:28:23;94732.81;;;6.00;100.00
19457;BME280;9867;48.094;11.478;2022-11-20T07:30:52;94729.50;;;6.35;100.00
19457;BME280;9867;48.094;11.478;2022-11-20T07:33:20;94734.78;;;6.19;100.00
19457;BME280;9867;48.094;11.478;2022-11-20T07:35:50;94731.94;;;5.93;100.00
19457;BME280;9867;48.094;11.478;2022-11-20T07:38:20;94726.66;;;6.09;100.00
19457;BME280;9867;48.094;11.478;2022-11-20T07:40:48;94725.47;;;5.90;100.00
19457;BME280;9867;48.094;11.478;2022-11-20T07:43:15;94725.09;;;5.93;100.00
19457;BME280;9867;48.094;11.478;2022-11-20T07:45:43;94724.22;;;6.01;100.00
19457;BME280;9867;48.094;11.478;2022-11-20T07:48:12;94708.50;;;5.97;100.00
19457;BME280;9867;48.094;11.478;2022-11-20T07:50:40;94718.16;;;5.87;100.00
19457;BME280;9867;48.094;11.478;2022-11-20T07:53:08;94739.03;;;6.12;100.00
19457;BME280;9867;48.094;11.478;2022-11-20T07:55:37;94719.81;;;5.95;100.00
19457;BME280;9867;48.094;11.478;2022-11-20T07:58:05;94735.75;;;6.18;100.00
19457;BME280;9867;48.094;11.478;2022-11-20T08:00:33;94745.94;;;6.33;100.00
19457;BME280;9867;48.094;11.478;2022-11-20T08:03:03;94746.38;;;6.22;100.00
19457;BME280;9867;48.094;11.478;2022-11-20T08:05:31;94747.97;;;6.23;100.00
19457;BME280;9867;48.094;11.478;2022-11-20T08:07:59;94742.06;;;6.22;100.00
19457;BME280;9867;48.094;11.478;2022-11-20T08:10:27;94749.50;;;6.38;100.00
19457;BME280;9867;48.094;11.478;2022-11-20T08:12:56;94748.03;;;6.29;100.00
19457;BME280;9867;48.094;11.478;2022-11-20T08:15:47;94746.22;;;6.59;100.00
19457;BME280;9867;48.094;11.478;2022-11-20T08:18:16;94750.44;;;6.52;100.00
19457;BME280;9867;48.094;11.478;2022-11-20T08:21:02;94746.94;;;6.53;100.00
19457;BME280;9867;48.094;11.478;2022-11-20T08:23:31;94752.44;;;6.35;100.00
19457;BME280;9867;48.094;11.478;2022-11-20T08:25:59;94754.75;;;6.52;100.00
19457;BME280;9867;48.094;11.478;2022-11-20T08:28:28;94765.41;;;6.40;100.00
19457;BME280;9867;48.094;11.478;2022-11-20T08:30:58;94749.38;;;6.25;100.00
19457;BME280;9867;48.094;11.478;2022-11-20T08:33:29;94765.28;;;6.12;100.00
19457;BME280;9867;48.094;11.478;2022-11-20T08:35:59;94746.50;;;6.13;100.00
19457;BME280;9867;48.094;11.478;2022-11-20T08:38:28;94756.16;;;6.39;100.00
19457;BME280;9867;48.094;11.478;2022-11-20T08:40:57;94750.72;;;6.85;100.00
19457;BME280;9867;48.094;11.478;2022-11-20T08:43:44;94750.97;;;6.90;100.00
19457;BME280;9867;48.094;11.478;2022-11-20T08:46:12;94758.56;;;7.05;100.00
19457;BME280;9867;48.094;11.478;2022-11-20T08:48:40;94735.66;;;7.11;100.00
19457;BME280;9867;48.094;11.478;2022-11-20T08:51:08;94742.84;;;7.01;100.00
19457;BME280;9867;48.094;11.478;2022-11-20T08:53:36;94746.66;;;6.91;100.00
19457;BME280;9867;48.094;11.478;2022-11-20T08:56:04;94742.31;;;7.06;100.00
19457;BME280;9867;48.094;11.478;2022-11-20T08:58:32;94737.69;;;6.73;100.00
19457;BME280;9867;48.094;11.478;2022-11-20T09:01:22;94747.19;;;6.58;100.00
19457;BME280;9867;48.094;11.478;2022-11-20T09:03:51;94728.81;;;6.91;100.00
19457;BME280;9867;48.094;11.478;2022-11-20T09:06:19;94744.13;;;6.91;100.00
19457;BME280;9867;48.094;11.478;2022-11-20T09:08:46;94742.72;;;7.37;100.00
19457;BME280;9867;48.094;11.478;2022-11-20T09:11:14;94740.19;;;7.72;100.00
19457;BME280;9867;48.094;11.478;2022-11-20T09:13:42;94743.94;;;7.76;100.00
19457;BME280;9867;48.094;11.478;2022-11-20T09:16:10;94741.78;;;7.45;100.00
19457;BME280;9867;48.094;11.478;2022-11-20T09:18:40;94748.69;;;6.95;100.00
19457;BME280;9867;48.094;11.478;2022-11-20T09:21:10;94761.06;;;6.77;100.00
19457;BME280;9867;48.094;11.478;2022-11-20T09:23:39;94744.97;;;6.55;100.00
19457;BME280;9867;48.094;11.478;2022-11-20T09:26:10;94738.75;;;6.79;100.00
19457;BME280;9867;48.094;11.478;2022-11-20T09:28:38;94727.22;;;6.83;100.00
19457;BME280;9867;48.094;11.478;2022-11-20T09:31:07;94744.38;;;6.96;100.00
19457;BME280;9867;48.094;11.478;2022-11-20T09:33:35;94741.81;;;6.96;100.00
19457;BME280;9867;48.094;11.478;2022-11-20T09:36:05;94731.63;;;7.24;100.00
19457;BME280;9867;48.094;11.478;2022-11-20T09:38:33;94729.03;;;7.17;100.00
19457;BME280;9867;48.094;11.478;2022-11-20T09:41:03;94730.13;;;7.29;100.00
19457;BME280;9867;48.094;11.478;2022-11-20T09:43:55;94723.50;;;7.41;100.00
19457;BME280;9867;48.094;11.478;2022-11-20T09:46:29;94732.00;;;7.48;100.00
19457;BME280;9867;48.094;11.478;2022-11-20T09:49:18;94734.28;;;7.71;100.00
19457;BME280;9867;48.094;11.478;2022-11-20T09:52:00;94736.56;;;7.60;100.00
19457;BME280;9867;48.094;11.478;2022-11-20T09:54:32;94717.47;;;7.49;100.00
19457;BME280;9867;48.094;11.478;2022-11-20T09:57:05;94722.94;;;7.80;100.00
19457;BME280;9867;48.094;11.478;2022-11-20T09:59:39;94717.63;;;7.82;100.00
19457;BME280;9867;48.094;11.478;2022-11-20T10:02:16;94721.47;;;8.06;100.00
19457;BME280;9867;48.094;11.478;2022-11-20T10:04:52;94718.09;;;8.40;100.00
19457;BME280;9867;48.094;11.478;2022-11-20T10:07:26;94703.31;;;8.35;100.00
19457;BME280;9867;48.094;11.478;2022-11-20T10:09:59;94719.56;;;8.21;100.00
19457;BME280;9867;48.094;11.478;2022-11-20T10:12:35;94705.28;;;7.79;100.00
19457;BME280;9867;48.094;11.478;2022-11-20T10:15:17;94707.81;;;7.79;100.00
19457;BME280;9867;48.094;11.478;2022-11-20T10:18:02;94716.59;;;8.11;100.00
19457;BME280;9867;48.094;11.478;2022-11-20T10:20:40;94717.53;;;7.97;100.00
19457;BME280;9867;48.094;11.478;2022-11-20T10:23:24;94716.44;;;8.19;100.00
19457;BME280;9867;48.094;11.478;2022-11-20T10:26:01;94720.19;;;8.30;100.00
19457;BME280;9867;48.094;11.478;2022-11-20T10:28:38;94715.66;;;8.25;100.00
19457;BME280;9867;48.094;11.478;2022-11-20T10:31:28;94717.75;;;8.02;100.00
19457;BME280;9867;48.094;11.478;2022-11-20T10:34:01;94719.56;;;8.21;100.00
19457;BME280;9867;48.094;11.478;2022-11-20T10:36:41;94719.31;;;8.09;100.00
19457;BME280;9867;48.094;11.478;2022-11-20T10:39:19;94718.72;;;8.07;100.00
19457;BME280;9867;48.094;11.478;2022-11-20T10:41:52;94710.25;;;7.94;100.00
19457;BME280;9867;48.094;11.478;2022-11-20T10:44:22;94713.50;;;7.81;100.00
19457;BME280;9867;48.094;11.478;2022-11-20T10:47:13;94728.22;;;7.72;100.00
19457;BME280;9867;48.094;11.478;2022-11-20T10:49:42;94721.06;;;7.61;100.00
19457;BME280;9867;48.094;11.478;2022-11-20T10:52:20;94719.81;;;7.85;100.00
19457;BME280;9867;48.094;11.478;2022-11-20T10:55:00;94724.91;;;7.85;100.00
19457;BME280;9867;48.094;11.478;2022-11-20T10:57:47;94718.09;;;7.92;100.00
19457;BME280;9867;48.094;11.478;2022-11-20T11:00:20;94702.72;;;7.85;100.00
19457;BME280;9867;48.094;11.478;2022-11-20T11:02:50;94717.22;;;7.72;100.00
19457;BME280;9867;48.094;11.478;2022-11-20T11:05:27;94714.44;;;7.67;100.00
19457;BME280;9867;48.094;11.478;2022-11-20T11:08:02;94717.84;;;7.46;100.00
19457;BME280;9867;48.094;11.478;2022-11-20T11:10:39;94705.94;;;7.60;100.00
19457;BME280;9867;48.094;11.478;2022-11-20T11:13:19;94702.78;;;7.58;100.00
19457;BME280;9867;48.094;11.478;2022-11-20T11:15:47;94696.59;;;7.73;100.00
19457;BME280;9867;48.094;11.478;2022-11-20T11:18:26;94696.59;;;7.73;100.00
19457;BME280;9867;48.094;11.478;2022-11-20T11:20:56;94697.69;;;7.58;100.00
19457;BME280;9867;48.094;11.478;2022-11-20T11:23:35;94706.25;;;7.43;100.00
19457;BME280;9867;48.094;11.478;2022-11-20T11:26:17;94691.25;;;7.27;100.00
19457;BME280;9867;48.094;11.478;2022-11-20T11:28:53;94693.13;;;7.18;100.00
19457;BME280;9867;48.094;11.478;2022-11-20T11:31:25;94683.25;;;7.09;100.00
19457;BME280;9867;48.094;11.478;2022-11-20T11:34:04;94707.28;;;7.21;100.00
19457;BME280;9867;48.094;11.478;2022-11-20T11:36:34;94685.03;;;7.43;100.00
19457;BME280;9867;48.094;11.478;2022-11-20T11:39:03;94681.81;;;7.62;100.00
19457;BME280;9867;48.094;11.478;2022-11-20T11:41:34;94676.56;;;7.70;100.00
19457;BME280;9867;48.094;11.478;2022-11-20T11:44:15;94680.03;;;7.63;100.00
19457;BME280;9867;48.094;11.478;2022-11-20T11:47:03;94667.28;;;7.63;100.00
19457;BME280;9867;48.094;11.478;2022-11-20T11:49:31;94669.72;;;7.84;100.00
19457;BME280;9867;48.094;11.478;2022-11-20T11:52:04;94688.34;;;7.71;100.00
19457;BME280;9867;48.094;11.478;2022-11-20T11:54:37;94688.53;;;7.70;100.00
19457;BME280;9867;48.094;11.478;2022-11-20T11:57:12;94673.44;;;7.75;100.00
19457;BME280;9867;48.094;11.478;2022-11-20T11:59:51;94677.41;;;7.91;100.00
19457;BME280;9867;48.094;11.478;2022-11-20T12:02:32;94656.97;;;7.91;100.00
19457;BME280;9867;48.094;11.478;2022-11-20T12:05:10;94695.25;;;7.77;100.00
19457;BME280;9867;48.094;11.478;2022-11-20T12:07:44;94673.13;;;7.50;100.00
19457;BME280;9867;48.094;11.478;2022-11-20T12:10:21;94687.19;;;7.39;100.00
19457;BME280;9867;48.094;11.478;2022-11-20T12:12:55;94680.81;;;6.94;100.00
19457;BME280;9867;48.094;11.478;2022-11-20T12:15:30;94681.50;;;6.39;100.00
19457;BME280;9867;48.094;11.478;2022-11-20T12:17:58;94678.75;;;6.34;100.00
19457;BME280;9867;48.094;11.478;2022-11-20T12:20:31;94678.06;;;6.25;100.00
19457;BME280;9867;48.094;11.478;2022-11-20T12:23:05;94665.81;;;6.14;100.00
19457;BME280;9867;48.094;11.478;2022-11-20T12:25:36;94676.34;;;6.11;100.00
19457;BME280;9867;48.094;11.478;2022-11-20T12:31:18;94662.06;;;6.31;100.00
19457;BME280;9867;48.094;11.478;2022-11-20T12:33:59;94662.84;;;6.32;100.00
19457;BME280;9867;48.094;11.478;2022-11-20T12:36:39;94661.47;;;6.14;100.00
19457;BME280;9867;48.094;11.478;2022-11-20T12:39:30;94670.13;;;6.13;100.00
19457;BME280;9867;48.094;11.478;2022-11-20T12:42:08;94658.16;;;6.14;100.00
19457;BME280;9867;48.094;11.478;2022-11-20T12:45:22;94660.91;;;6.12;100.00
19457;BME280;9867;48.094;11.478;2022-11-20T12:48:11;94670.50;;;6.17;100.00
19457;BME280;9867;48.094;11.478;2022-11-20T12:50:50;94662.69;;;6.19;100.00
19457;BME280;9867;48.094;11.478;2022-11-20T12:53:46;94671.88;;;6.34;100.00
19457;BME280;9867;48.094;11.478;2022-11-20T12:56:25;94661.81;;;6.26;100.00
19457;BME280;9867;48.094;11.478;2022-11-20T12:59:07;94661.91;;;6.18;100.00
19457;BME280;9867;48.094;11.478;2022-11-20T13:01:46;94658.22;;;6.21;100.00
19457;BME280;9867;48.094;11.478;2022-11-20T13:04:29;94659.19;;;6.20;100.00
19457;BME280;9867;48.094;11.478;2022-11-20T13:07:02;94656.78;;;6.11;100.00
19457;BME280;9867;48.094;11.478;2022-11-20T13:09:32;94665.22;;;5.97;100.00
19457;BME280;9867;48.094;11.478;2022-11-20T13:12:06;94666.38;;;5.95;100.00
19457;BME280;9867;48.094;11.478;2022-11-20T13:14:40;94651.53;;;5.83;100.00
19457;BME280;9867;48.094;11.478;2022-11-20T13:17:15;94638.44;;;5.65;100.00
19457;BME280;9867;48.094;11.478;2022-11-20T13:19:47;94646.06;;;5.65;100.00
19457;BME280;9867;48.094;11.478;2022-11-20T13:22:24;94636.41;;;5.46;100.00
19457;BME280;9867;48.094;11.478;2022-11-20T13:24:53;94638.88;;;5.54;100.00
19457;BME280;9867;48.094;11.478;2022-11-20T13:27:22;94628.34;;;5.57;100.00